Flagstaff, AZ

1:57 AM MST on October 01, 2014 (GMT -0700)
Bow and Arrow | Change Station
CLOSE
Current Station
Personal Weather Station
Location: Flagstaff, AZ
Elevation: 6900 ft
Nearby Weather Stations

Elev 6900 ft 35.16 °N, 111.66 °W | Updated 1 second ago

Clear
Clear
39.9 °F
Feels Like 40 °F
N
0.0
Wind Variable Wind from WNW
Gusts 0.0 mph

Today
High -- | Low -- °F
--% Chance of Precip.
Yesterday
High -- | Low -- °F
Precip. -- in
6:21 AM 6:10 PM
Waxing Crescent, 45% visible
Pressure 29.83 in
Visibility 10.0 miles
Clouds Clear
Windchill 40 °F
Dew Point 18 °F
Humidity 40%
Rainfall 0.00 in
Snow Depth Not available.
UV 0 out of 12
Pollen 5.70 out of 12
Air Quality Not available.
Flu Activity Not available.
METAR KFLG 010757Z AUTO 22003KT 10SM CLR 06/02 A3005 RMK AO2 SLP099 T00610017 TSNO

More Conditions Fewer Conditions

Pressure 29.83 in
Visibility 10.0 miles
Clouds Clear
Windchill 40 °F
Dew Point 18 °F
Humidity 40%
Rainfall 0.00 in
Snow Depth Not available.
UV 0 out of 12
Pollen 5.70 out of 12
Air Quality Not available.
Flu Activity Not available.
METAR KFLG 010757Z AUTO 22003KT 10SM CLR 06/02 A3005 RMK AO2 SLP099 T00610017 TSNO

More Conditions Fewer Conditions

10-Day Weather Forecast

Almanac

Astronomy

Oct. 01, 2014 Rise Set
Actual Time 6:21 AM MST 6:10 PM MST
Civil Twilight 5:56 AM MST 6:35 PM MST
Nautical Twilight 5:26 AM MST 7:04 PM MST
Astronomical Twilight 4:57 AM MST 7:34 PM MST
Moon 1:16 PM MST 11:55 PM MST
Length of Visible Light 12h 39m
Length of Day
11h 48m
Tomorrow will be 2m 11s shorter.
Waxing Crescent, 45% of the Moon is Illuminated
Today
Waxing Crescent
Oct 1
First Quarter
Oct 8
Full
Oct 15
Last Quarter
Oct 23
New

Today's Extremes

State Highs State Lows

Community

WunderPhotos

Upload Photos

1,757,902 photos uploaded!

Nearby

Snow Depth

Station Depth Elevation
White Horse Lake 1 in 7180 ft
Maverick Fork 1 in 9200 ft
Snowslide Canyon 1 in 9730 ft
Hannagan Meadows 0 in 9020 ft
Coronado Trail 1 in 8400 ft

Earthquake Activity

City Distance Mag. Time & Date
No recent earthquake activity has been reported nearby.
Minimum magnitude displayed is 2.5.

Coastal Water Temperatures

Place Temperature
No Stations Reporting

Nearby Weather Stations